Time;durP1;ratioP1;P1;durP2;ratioP2;P2;SDS_P1;SDS_P2;PMS_P1;PMS_P2;Temp;Humidity;BMP_temperature;BMP_pressure;BME280_temperature;BME280_humidity;BME280_pressure;Samples;Min_cycle;Max_cycle;Signal;HPM_P1;HPM_P2
2023/12/02 00:01:04;;;;;;;;;;;;;;;;;;6258344;28;19913;-88
2023/12/02 00:04:04;;;;;;;;;;;;;;;;;;6256954;28;19919;-87
2023/12/02 00:07:05;;;;;;;;;;;;;;;;;;6249572;28;20349;-88
2023/12/02 00:10:05;;;;;;;;;;;;;;;;;;6252283;28;19913;-88
2023/12/02 00:13:05;;;;;;;;;;;;;;;;;;6290667;28;19912;-88
2023/12/02 00:16:05;;;;;;;;;;;;;;;;;;6255389;28;19959;-88
2023/12/02 00:19:05;;;;;;;;;;;;;;;;;;6264262;28;19917;-89
2023/12/02 00:22:06;;;;;;;;;;;;;;;;;;6258365;28;19913;-89
2023/12/02 00:25:06;;;;;;;;;;;;;;;;;;6267577;28;19963;-88
2023/12/02 00:28:06;;;;;;;;;;;;;;;;;;6251782;28;19963;-89
2023/12/02 00:31:06;;;;;;;;;;;;;;;;;;6264802;28;20301;-89
2023/12/02 00:34:07;;;;;;;;;;;;;;;;;;6285382;28;19929;-89
2023/12/02 00:37:07;;;;;;;;;;;;;;;;;;6280689;28;19912;-89
2023/12/02 00:40:07;;;;;;;;;;;;;;;;;;6301426;28;19908;-90
2023/12/02 00:43:07;;;;;;;;;;;;;;;;;;6285435;28;19996;-89
2023/12/02 00:46:07;;;;;;;;;;;;;;;;;;6259553;28;19982;-89
2023/12/02 00:49:07;;;;;;;;;;;;;;;;;;6280801;28;19921;-89
2023/12/02 00:52:07;;;;;;;;;;;;;;;;;;6280783;28;19912;-89
2023/12/02 00:55:07;;;;;;;;;;;;;;;;;;6269876;28;20020;-90
2023/12/02 00:58:08;;;;;;;;;;;;;;;;;;6273984;28;19951;-89
2023/12/02 01:01:08;;;;;;;;;;;;;;;;;;6262709;28;19979;-89
2023/12/02 01:04:08;;;;;;;;;;;;;;;;;;6303182;28;19908;-89
2023/12/02 01:07:08;;;;;;;;;;;;;;;;;;6299111;28;20383;-90
2023/12/02 01:10:11;;;;;;;;;;;;;;;;;;6297134;28;20003;-89
2023/12/02 01:13:12;;;;;;;;;;;;;;;;;;6257426;28;19916;-89
2023/12/02 01:16:12;;;;;;;;;;;;;;;;;;6258595;28;19909;-89
2023/12/02 01:19:12;;;;;;;;;;;;;;;;;;6297915;28;19958;-90
2023/12/02 01:22:12;;;;;;;;;;;;;;;;;;6297977;28;19914;-90
2023/12/02 01:25:12;;;;;;;;;;;;;;;;;;6258184;28;19923;-89
2023/12/02 01:28:12;;;;;;;;;;;;;;;;;;6265328;28;19913;-89
2023/12/02 01:31:12;;;;;;;;;;;;;;;;;;6274437;28;19921;-90
2023/12/02 01:34:13;;;;;;;;;;;;;;;;;;6274832;28;19925;-89
2023/12/02 01:37:13;;;;;;;;;;;;;;;;;;6281847;28;19919;-89
2023/12/02 01:40:13;;;;;;;;;;;;;;;;;;6280724;28;19917;-89
2023/12/02 01:43:13;;;;;;;;;;;;;;;;;;6273211;28;19954;-90
2023/12/02 01:46:14;;;;;;;;;;;;;;;;;;6260968;28;19924;-89
2023/12/02 01:49:14;;;;;;;;;;;;;;;;;;6264649;28;19965;-89
2023/12/02 01:52:14;;;;;;;;;;;;;;;;;;6282049;28;19963;-89
2023/12/02 01:55:14;;;;;;;;;;;;;;;;;;6280373;28;19921;-91
2023/12/02 01:58:14;;;;;;;;;;;;;;;;;;6279998;28;19913;-90
2023/12/02 02:01:14;;;;;;;;;;;;;;;;;;6276052;28;19913;-89
2023/12/02 02:04:15;;;;;;;;;;;;;;;;;;6306257;28;19913;-90
2023/12/02 02:07:15;;;;;;;;;;;;;;;;;;6288904;28;20007;-89
2023/12/02 02:10:15;;;;;;;;;;;;;;;;;;6281499;28;19978;-89
2023/12/02 02:13:15;;;;;;;;;;;;;;;;;;6281004;28;19959;-90
2023/12/02 02:16:15;;;;;;;;;;;;;;;;;;6298806;28;19985;-89
2023/12/02 02:19:15;;;;;;;;;;;;;;;;;;6265226;28;19912;-89
2023/12/02 02:22:15;;;;;;;;;;;;;;;;;;6281026;28;19919;-90
2023/12/02 02:25:16;;;;;;;;;;;;;;;;;;6273603;28;19920;-89
2023/12/02 02:28:16;;;;;;;;;;;;;;;;;;6274930;28;19913;-89
2023/12/02 02:31:16;;;;;;;;;;;;;;;;;;6274315;28;19951;-89
2023/12/02 02:34:16;;;;;;;;;;;;;;;;;;6280003;28;19927;-89
2023/12/02 02:37:16;;;;;;;;;;;;;;;;;;6282838;28;19951;-89
2023/12/02 02:40:16;;;;;;;;;;;;;;;;;;6278432;28;19916;-89
2023/12/02 02:43:16;;;;;;;;;;;;;;;;;;6270769;28;19924;-89
2023/12/02 02:46:17;;;;;;;;;;;;;;;;;;6272050;28;20449;-89
2023/12/02 02:49:17;;;;;;;;;;;;;;;;;;6273939;28;19948;-89
2023/12/02 02:52:17;;;;;;;;;;;;;;;;;;6282667;28;19913;-89
2023/12/02 02:55:17;;;;;;;;;;;;;;;;;;6298083;28;19923;-89
2023/12/02 02:58:17;;;;;;;;;;;;;;;;;;6289216;28;19917;-89
2023/12/02 03:01:18;;;;;;;;;;;;;;;;;;6286865;28;19913;-89
2023/12/02 03:04:18;;;;;;;;;;;;;;;;;;6294688;28;19912;-88
2023/12/02 03:07:18;;;;;;;;;;;;;;;;;;6255616;28;19913;-89
2023/12/02 03:10:18;;;;;;;;;;;;;;;;;;6285183;28;19920;-89
2023/12/02 03:13:18;;;;;;;;;;;;;;;;;;6266716;28;19921;-83
2023/12/02 03:16:20;;;;;;;;;;;;;;;;;;6253965;28;19909;-83
2023/12/02 03:19:20;;;;;;;;;;;;;;;;;;6271441;28;19916;-82
2023/12/02 03:22:20;;;;;;;;;;;;;;;;;;6270913;28;19909;-82
2023/12/02 03:25:20;;;;;;;;;;;;;;;;;;6274887;28;19912;-83
2023/12/02 03:28:22;;;;;;;;;;;;;;;;;;6282018;28;19912;-83
2023/12/02 03:31:22;;;;;;;;;;;;;;;;;;6296019;28;20007;-83
2023/12/02 03:34:22;;;;;;;;;;;;;;;;;;6296615;28;19916;-82
2023/12/02 03:37:22;;;;;;;;;;;;;;;;;;6296428;28;19916;-83
2023/12/02 03:40:22;;;;;;;;;;;;;;;;;;6297252;28;19917;-83
2023/12/02 03:43:22;;;;;;;;;;;;;;;;;;6287927;28;19969;-85
2023/12/02 03:46:23;;;;;;;;;;;;;;;;;;6271084;28;19913;-84
2023/12/02 03:49:23;;;;;;;;;;;;;;;;;;6271489;28;19921;-84
2023/12/02 03:52:23;;;;;;;;;;;;;;;;;;6279527;28;19912;-84
2023/12/02 03:55:24;;;;;;;;;;;;;;;;;;6301066;28;20043;-83
2023/12/02 03:58:26;;;;;;;;;;;;;;;;;;6271471;28;20451;-84
2023/12/02 04:01:26;;;;;;;;;;;;;;;;;;6290610;28;19913;-82
2023/12/02 04:04:26;;;;;;;;;;;;;;;;;;6300967;28;19912;-83
2023/12/02 04:07:26;;;;;;;;;;;;;;;;;;6281946;28;19917;-83
2023/12/02 04:10:26;;;;;;;;;;;;;;;;;;6299812;28;19912;-83
2023/12/02 04:13:26;;;;;;;;;;;;;;;;;;6289908;28;19967;-83
2023/12/02 04:16:27;;;;;;;;;;;;;;;;;;6277892;28;20334;-83
2023/12/02 04:19:27;;;;;;;;;;;;;;;;;;6276678;28;20015;-83
2023/12/02 04:22:27;;;;;;;;;;;;;;;;;;6268920;28;20415;-83
2023/12/02 04:25:28;;;;;;;;;;;;;;;;;;6289490;28;20372;-83
2023/12/02 04:28:28;;;;;;;;;;;;;;;;;;6290726;28;19913;-83
2023/12/02 04:31:28;;;;;;;;;;;;;;;;;;6288999;28;19970;-83
2023/12/02 04:34:28;;;;;;;;;;;;;;;;;;6276723;28;19928;-83
2023/12/02 04:37:29;;;;;;;;;;;;;;;;;;6281731;28;19908;-83
2023/12/02 04:40:30;;;;;;;;;;;;;;;;;;6282157;28;19953;-83
2023/12/02 04:43:30;;;;;;;;;;;;;;;;;;6280167;28;19919;-84
2023/12/02 04:46:30;;;;;;;;;;;;;;;;;;6261778;28;19908;-83
2023/12/02 04:49:30;;;;;;;;;;;;;;;;;;6298244;28;19912;-83
2023/12/02 04:52:30;;;;;;;;;;;;;;;;;;6291176;28;19913;-83
2023/12/02 04:55:31;;;;;;;;;;;;;;;;;;6261869;28;19924;-83
2023/12/02 04:58:31;;;;;;;;;;;;;;;;;;6274888;28;19913;-83
2023/12/02 05:01:31;;;;;;;;;;;;;;;;;;6277667;28;19939;-83
2023/12/02 05:04:31;;;;;;;;;;;;;;;;;;6298789;28;19962;-83
2023/12/02 05:07:31;;;;;;;;;;;;;;;;;;6281450;28;19951;-84
2023/12/02 05:10:32;;;;;;;;;;;;;;;;;;6308485;28;20385;-84
2023/12/02 05:13:32;;;;;;;;;;;;;;;;;;6290234;28;19924;-84
2023/12/02 05:16:32;;;;;;;;;;;;;;;;;;6288350;28;19908;-84
2023/12/02 05:19:32;;;;;;;;;;;;;;;;;;6280547;28;19913;-83
2023/12/02 05:22:33;;;;;;;;;;;;;;;;;;6272843;28;20353;-83
2023/12/02 05:25:33;;;;;;;;;;;;;;;;;;6274020;28;20331;-84
2023/12/02 05:28:33;;;;;;;;;;;;;;;;;;6274494;28;19917;-83
2023/12/02 05:31:33;;;;;;;;;;;;;;;;;;6287874;28;19921;-91
2023/12/02 05:34:33;;;;;;;;;;;;;;;;;;6263820;28;20309;-92
2023/12/02 05:37:33;;;;;;;;;;;;;;;;;;6295204;28;19924;-91
2023/12/02 05:40:34;;;;;;;;;;;;;;;;;;6298057;28;19923;-92
2023/12/02 05:43:34;;;;;;;;;;;;;;;;;;6292893;28;19913;-91
2023/12/02 05:46:34;;;;;;;;;;;;;;;;;;6292665;28;19917;-92
2023/12/02 05:49:34;;;;;;;;;;;;;;;;;;6300912;28;19912;-93
2023/12/02 05:52:34;;;;;;;;;;;;;;;;;;6275581;28;20008;-91
2023/12/02 05:55:34;;;;;;;;;;;;;;;;;;6288721;28;20220;-91
2023/12/02 05:58:35;;;;;;;;;;;;;;;;;;6284888;28;19912;-92
2023/12/02 06:01:36;;;;;;;;;;;;;;;;;;6310417;28;19979;-92
2023/12/02 06:04:36;;;;;;;;;;;;;;;;;;6280876;28;19964;-92
2023/12/02 06:07:36;;;;;;;;;;;;;;;;;;6299724;28;19935;-91
2023/12/02 06:10:37;;;;;;;;;;;;;;;;;;6287569;28;20345;-91
2023/12/02 06:13:37;;;;;;;;;;;;;;;;;;6295941;28;19913;-91
2023/12/02 06:16:37;;;;;;;;;;;;;;;;;;6271205;28;19919;-91
2023/12/02 06:19:37;;;;;;;;;;;;;;;;;;6297394;28;19927;-91
2023/12/02 06:22:37;;;;;;;;;;;;;;;;;;6299695;28;19960;-91
2023/12/02 06:25:38;;;;;;;;;;;;;;;;;;6282969;28;19944;-91
2023/12/02 06:28:38;;;;;;;;;;;;;;;;;;6274299;28;19964;-91
2023/12/02 06:31:38;;;;;;;;;;;;;;;;;;6287041;28;19920;-91
2023/12/02 06:34:38;;;;;;;;;;;;;;;;;;6297915;28;19924;-91
2023/12/02 06:37:40;;;;;;;;;;;;;;;;;;6296568;28;21841;-92
2023/12/02 06:40:40;;;;;;;;;;;;;;;;;;6296890;28;19917;-91
2023/12/02 06:43:41;;;;;;;;;;;;;;;;;;6278312;28;19916;-92
2023/12/02 06:46:42;;;;;;;;;;;;;;;;;;6290433;28;19909;-90
2023/12/02 06:49:42;;;;;;;;;;;;;;;;;;6294391;28;19915;-92
2023/12/02 06:52:42;;;;;;;;;;;;;;;;;;6298065;28;19909;-90
2023/12/02 06:55:42;;;;;;;;;;;;;;;;;;6268107;28;19917;-86
2023/12/02 06:58:42;;;;;;;;;;;;;;;;;;6266592;28;19958;-88
2023/12/02 07:01:42;;;;;;;;;;;;;;;;;;6291803;28;20006;-88
2023/12/02 07:04:42;;;;;;;;;;;;;;;;;;6296666;28;20257;-87
2023/12/02 07:07:42;;;;;;;;;;;;;;;;;;6278405;28;19913;-87
2023/12/02 07:10:43;;;;;;;;;;;;;;;;;;6295121;28;19916;-87
2023/12/02 07:13:43;;;;;;;;;;;;;;;;;;6278398;28;19925;-87
2023/12/02 07:16:43;;;;;;;;;;;;;;;;;;6296305;28;19923;-88
2023/12/02 07:19:44;;;;;;;;;;;;;;;;;;6284509;28;20051;-87
2023/12/02 07:22:44;;;;;;;;;;;;;;;;;;6274762;28;19912;-91
2023/12/02 07:25:44;;;;;;;;;;;;;;;;;;6280219;28;20386;-88
2023/12/02 07:28:44;;;;;;;;;;;;;;;;;;6293036;28;19908;-90
2023/12/02 07:31:45;;;;;;;;;;;;;;;;;;6317987;28;19932;-90
2023/12/02 07:34:45;;;;;;;;;;;;;;;;;;6279256;28;19917;-90
2023/12/02 07:37:47;;;;;;;;;;;;;;;;;;6274459;28;19917;-91
2023/12/02 07:40:47;;;;;;;;;;;;;;;;;;6292802;28;19908;-91
2023/12/02 07:43:47;;;;;;;;;;;;;;;;;;6298190;28;19915;-90
2023/12/02 07:46:48;;;;;;;;;;;;;;;;;;6305282;28;19908;-90
2023/12/02 07:49:48;;;;;;;;;;;;;;;;;;6289609;28;19913;-91
2023/12/02 07:52:48;;;;;;;;;;;;;;;;;;6270458;28;19935;-90
2023/12/02 07:55:48;;;;;;;;;;;;;;;;;;6282548;28;19912;-90
2023/12/02 07:58:48;;;;;;;;;;;;;;;;;;6294967;28;19916;-89
2023/12/02 08:01:48;;;;;;;;;;;;;;;;;;6264740;28;19909;-89
2023/12/02 08:04:48;;;;;;;;;;;;;;;;;;6297382;28;19913;-88
2023/12/02 08:07:49;;;;;;;;;;;;;;;;;;6273614;28;19916;-87
2023/12/02 08:10:49;;;;;;;;;;;;;;;;;;6277675;28;19967;-88
2023/12/02 08:13:49;;;;;;;;;;;;;;;;;;6300934;28;19924;-88
2023/12/02 08:16:49;;;;;;;;;;;;;;;;;;6294482;28;20007;-87
2023/12/02 08:19:50;;;;;;;;;;;;;;;;;;6282929;28;19981;-88
2023/12/02 08:22:50;;;;;;;;;;;;;;;;;;6300654;28;19975;-87
2023/12/02 08:25:50;;;;;;;;;;;;;;;;;;6271479;28;19964;-87
2023/12/02 08:28:50;;;;;;;;;;;;;;;;;;6285946;28;20308;-89
2023/12/02 08:31:50;;;;;;;;;;;;;;;;;;6286217;28;19921;-89
2023/12/02 08:34:50;;;;;;;;;;;;;;;;;;6283205;28;19920;-90
2023/12/02 08:37:51;;;;;;;;;;;;;;;;;;6278422;28;20010;-90
2023/12/02 08:40:51;;;;;;;;;;;;;;;;;;6274734;28;20377;-90
2023/12/02 08:43:51;;;;;;;;;;;;;;;;;;6258197;28;19909;-90
2023/12/02 08:46:52;;;;;;;;;;;;;;;;;;6273534;28;19917;-89
2023/12/02 08:49:52;;;;;;;;;;;;;;;;;;6298093;28;19916;-89
2023/12/02 08:52:52;;;;;;;;;;;;;;;;;;6265107;28;19917;-88
2023/12/02 08:55:53;;;;;;;;;;;;;;;;;;6292267;28;19923;-89
2023/12/02 08:58:54;;;;;;;;;;;;;;;;;;6285541;28;19920;-89
2023/12/02 09:01:54;;;;;;;;;;;;;;;;;;6289409;28;19919;-89
2023/12/02 09:04:54;;;;;;;;;;;;;;;;;;6264375;28;19916;-90
2023/12/02 09:07:55;;;;;;;;;;;;;;;;;;6295026;28;19964;-89
2023/12/02 09:10:55;;;;;;;;;;;;;;;;;;6270311;28;19913;-89
2023/12/02 09:13:55;;;;;;;;;;;;;;;;;;6262109;28;19939;-89
2023/12/02 09:16:55;;;;;;;;;;;;;;;;;;6288890;28;19924;-89
2023/12/02 09:19:55;;;;;;;;;;;;;;;;;;6258062;28;19916;-90
2023/12/02 09:22:56;;;;;;;;;;;;;;;;;;6268221;28;20373;-90
2023/12/02 09:25:56;;;;;;;;;;;;;;;;;;6275908;28;19913;-90
2023/12/02 09:28:56;;;;;;;;;;;;;;;;;;6305626;28;20021;-90
2023/12/02 09:31:56;;;;;;;;;;;;;;;;;;6280254;28;19921;-90
2023/12/02 09:34:56;;;;;;;;;;;;;;;;;;6282747;28;19916;-90
2023/12/02 09:37:56;;;;;;;;;;;;;;;;;;6289686;28;19916;-90
2023/12/02 09:40:57;;;;;;;;;;;;;;;;;;6298332;28;19916;-90
2023/12/02 09:43:57;;;;;;;;;;;;;;;;;;6276444;28;19908;-89
2023/12/02 09:46:57;;;;;;;;;;;;;;;;;;6289525;28;20004;-90
2023/12/02 09:49:57;;;;;;;;;;;;;;;;;;6298128;28;20019;-89
2023/12/02 09:52:57;;;;;;;;;;;;;;;;;;6299497;28;19920;-89
2023/12/02 09:55:57;;;;;;;;;;;;;;;;;;6299551;28;19924;-89
2023/12/02 09:58:57;;;;;;;;;;;;;;;;;;6311181;28;20555;-88
2023/12/02 10:01:58;;;;;;;;;;;;;;;;;;6302987;28;19934;-87
2023/12/02 10:04:58;;;;;;;;;;;;;;;;;;6301082;28;19913;-90
2023/12/02 10:07:59;;;;;;;;;;;;;;;;;;6286015;28;19919;-84
2023/12/02 10:11:00;;;;;;;;;;;;;;;;;;6288940;28;20289;-85
2023/12/02 10:14:02;;;;;;;;;;;;;;;;;;6287276;28;23725;-81
2023/12/02 10:17:03;;;;;;;;;;;;;;;;;;6295414;28;19920;-81
2023/12/02 10:20:11;;;;;;;;;;;;;;;;;;6312959;28;19913;-81
2023/12/02 10:23:12;;;;;;;;;;;;;;;;;;6296885;28;19962;-81
2023/12/02 10:26:12;;;;;;;;;;;;;;;;;;6280494;28;19942;-81
2023/12/02 10:29:13;;;;;;;;;;;;;;;;;;6287136;28;19913;-81
2023/12/02 10:32:13;;;;;;;;;;;;;;;;;;6270112;28;20326;-80
2023/12/02 10:35:13;;;;;;;;;;;;;;;;;;6277752;28;19920;-81
2023/12/02 10:38:13;;;;;;;;;;;;;;;;;;6271440;28;19922;-81
2023/12/02 10:41:13;;;;;;;;;;;;;;;;;;6271420;28;20366;-81
2023/12/02 10:44:13;;;;;;;;;;;;;;;;;;6271829;28;20350;-81
2023/12/02 10:47:14;;;;;;;;;;;;;;;;;;6268926;28;19928;-81
2023/12/02 10:50:14;;;;;;;;;;;;;;;;;;6286744;28;19916;-81
2023/12/02 10:53:14;;;;;;;;;;;;;;;;;;6278161;28;20342;-81
2023/12/02 10:56:21;;;;;;;;;;;;;;;;;;6278459;28;20377;-81
2023/12/02 10:59:21;;;;;;;;;;;;;;;;;;6293662;28;20038;-81
2023/12/02 11:02:21;;;;;;;;;;;;;;;;;;6278253;28;19908;-81
2023/12/02 11:05:21;;;;;;;;;;;;;;;;;;6301119;28;19919;-81
2023/12/02 11:08:21;;;;;;;;;;;;;;;;;;6289005;28;19916;-81
2023/12/02 11:11:21;;;;;;;;;;;;;;;;;;6301307;28;19908;-81
2023/12/02 11:14:21;;;;;;;;;;;;;;;;;;6300871;28;19912;-81
2023/12/02 11:17:23;;;;;;;;;;;;;;;;;;6299070;28;19913;-81
2023/12/02 11:20:23;;;;;;;;;;;;;;;;;;6283234;28;19912;-82
2023/12/02 11:23:23;;;;;;;;;;;;;;;;;;6275355;28;19917;-81
2023/12/02 11:26:23;;;;;;;;;;;;;;;;;;6269306;28;19963;-81
2023/12/02 11:29:23;;;;;;;;;;;;;;;;;;6282546;28;19916;-81
2023/12/02 11:32:23;;;;;;;;;;;;;;;;;;6246021;28;19925;-81
2023/12/02 11:35:24;;;;;;;;;;;;;;;;;;6251207;28;19920;-81
2023/12/02 11:38:25;;;;;;;;;;;;;;;;;;6250242;28;19983;-81
2023/12/02 11:41:25;;;;;;;;;;;;;;;;;;6252767;28;20270;-81
2023/12/02 11:44:25;;;;;;;;;;;;;;;;;;6251809;28;19909;-80
2023/12/02 11:47:25;;;;;;;;;;;;;;;;;;6263630;28;20008;-81
2023/12/02 11:50:25;;;;;;;;;;;;;;;;;;6284070;28;20059;-81
2023/12/02 11:53:26;;;;;;;;;;;;;;;;;;6274989;28;20054;-81
2023/12/02 11:56:26;;;;;;;;;;;;;;;;;;6274275;28;20011;-82
2023/12/02 11:59:26;;;;;;;;;;;;;;;;;;6240911;28;20016;-82
2023/12/02 12:02:27;;;;;;;;;;;;;;;;;;6256228;28;19968;-82
2023/12/02 12:05:27;;;;;;;;;;;;;;;;;;6248650;28;19913;-83
2023/12/02 12:08:27;;;;;;;;;;;;;;;;;;6259966;28;19915;-82
2023/12/02 12:11:27;;;;;;;;;;;;;;;;;;6256838;28;19999;-82
2023/12/02 12:14:27;;;;;;;;;;;;;;;;;;6272308;28;20019;-82
2023/12/02 12:17:28;;;;;;;;;;;;;;;;;;6264276;28;19919;-82
2023/12/02 12:20:29;;;;;;;;;;;;;;;;;;6249621;28;20066;-82
2023/12/02 12:23:31;;;;;;;;;;;;;;;;;;6274815;28;19913;-82
2023/12/02 12:26:31;;;;;;;;;;;;;;;;;;6253673;28;20003;-83
2023/12/02 12:29:31;;;;;;;;;;;;;;;;;;6250417;28;19920;-83
2023/12/02 12:32:31;;;;;;;;;;;;;;;;;;6278025;28;19927;-83
2023/12/02 12:35:31;;;;;;;;;;;;;;;;;;6280905;28;19912;-83
2023/12/02 12:38:31;;;;;;;;;;;;;;;;;;6271048;28;19916;-84
2023/12/02 12:41:31;;;;;;;;;;;;;;;;;;6266896;28;19921;-89
2023/12/02 12:44:32;;;;;;;;;;;;;;;;;;6278156;28;19920;-91
2023/12/02 12:47:32;;;;;;;;;;;;;;;;;;6288279;28;19912;-91
2023/12/02 12:50:32;;;;;;;;;;;;;;;;;;6293717;28;19912;-85
2023/12/02 12:53:32;;;;;;;;;;;;;;;;;;6287447;28;19966;-85
2023/12/02 12:56:32;;;;;;;;;;;;;;;;;;6282716;28;19916;-85
2023/12/02 12:59:32;;;;;;;;;;;;;;;;;;6281702;28;20393;-85
2023/12/02 13:02:33;;;;;;;;;;;;;;;;;;6293003;28;20429;-85
2023/12/02 13:05:33;;;;;;;;;;;;;;;;;;6289341;28;19917;-90
2023/12/02 13:08:34;;;;;;;;;;;;;;;;;;6297752;28;19913;-85
2023/12/02 13:11:34;;;;;;;;;;;;;;;;;;6298595;28;20359;-85
2023/12/02 13:14:35;;;;;;;;;;;;;;;;;;6296743;28;19970;-88
2023/12/02 13:17:35;;;;;;;;;;;;;;;;;;6283340;28;19917;-85
2023/12/02 13:20:35;;;;;;;;;;;;;;;;;;6298922;28;19908;-86
2023/12/02 13:23:35;;;;;;;;;;;;;;;;;;6297904;28;19912;-88
2023/12/02 13:26:36;;;;;;;;;;;;;;;;;;6277289;28;19936;-87
2023/12/02 13:29:36;;;;;;;;;;;;;;;;;;6275064;28;20380;-84
2023/12/02 13:32:37;;;;;;;;;;;;;;;;;;6272603;28;20285;-87
2023/12/02 13:35:37;;;;;;;;;;;;;;;;;;6275943;28;19912;-86
2023/12/02 13:38:37;;;;;;;;;;;;;;;;;;6299801;28;19963;-86
2023/12/02 13:41:37;;;;;;;;;;;;;;;;;;6275123;28;20016;-87
2023/12/02 13:44:37;;;;;;;;;;;;;;;;;;6298352;28;20050;-87
2023/12/02 13:47:37;;;;;;;;;;;;;;;;;;6280599;28;20002;-87
2023/12/02 13:50:37;;;;;;;;;;;;;;;;;;6284975;28;20387;-89
2023/12/02 13:53:38;;;;;;;;;;;;;;;;;;6291442;28;19909;-88
2023/12/02 13:56:38;;;;;;;;;;;;;;;;;;6276012;28;19939;-86
2023/12/02 13:59:38;;;;;;;;;;;;;;;;;;6314972;28;19968;-87
2023/12/02 14:02:38;;;;;;;;;;;;;;;;;;6271832;28;19975;-89
2023/12/02 14:05:39;;;;;;;;;;;;;;;;;;6300209;28;19988;-88
2023/12/02 14:08:39;;;;;;;;;;;;;;;;;;6275214;28;19913;-89
2023/12/02 14:11:39;;;;;;;;;;;;;;;;;;6296677;28;19923;-90
2023/12/02 14:14:39;;;;;;;;;;;;;;;;;;6276058;28;19921;-88
2023/12/02 14:17:40;;;;;;;;;;;;;;;;;;6283299;28;19956;-88
2023/12/02 14:20:40;;;;;;;;;;;;;;;;;;6293233;28;20384;-89
2023/12/02 14:23:41;;;;;;;;;;;;;;;;;;6273844;28;19923;-91
2023/12/02 14:26:41;;;;;;;;;;;;;;;;;;6293718;28;19919;-88
2023/12/02 14:29:41;;;;;;;;;;;;;;;;;;6274288;28;19919;-91
2023/12/02 14:32:41;;;;;;;;;;;;;;;;;;6298631;28;19923;-90
2023/12/02 14:35:42;;;;;;;;;;;;;;;;;;6299234;28;19962;-90
2023/12/02 14:38:42;;;;;;;;;;;;;;;;;;6293506;28;19966;-90
2023/12/02 14:41:42;;;;;;;;;;;;;;;;;;6255603;28;19923;-89
2023/12/02 14:44:42;;;;;;;;;;;;;;;;;;6276937;28;19955;-89
2023/12/02 14:47:42;;;;;;;;;;;;;;;;;;6287294;28;19913;-88
2023/12/02 14:50:44;;;;;;;;;;;;;;;;;;6273681;28;20010;-87
2023/12/02 14:53:44;;;;;;;;;;;;;;;;;;6293527;28;19995;-89
2023/12/02 14:56:44;;;;;;;;;;;;;;;;;;6296674;28;19923;-88
2023/12/02 14:59:44;;;;;;;;;;;;;;;;;;6279042;28;19912;-88
2023/12/02 15:02:44;;;;;;;;;;;;;;;;;;6270820;28;19936;-89
2023/12/02 15:05:44;;;;;;;;;;;;;;;;;;6275813;28;19912;-89
2023/12/02 15:08:45;;;;;;;;;;;;;;;;;;6304994;28;19916;-89
2023/12/02 15:11:45;;;;;;;;;;;;;;;;;;6279305;28;19912;-89
2023/12/02 15:14:45;;;;;;;;;;;;;;;;;;6289515;28;19927;-88
2023/12/02 15:17:45;;;;;;;;;;;;;;;;;;6285011;28;19920;-89
2023/12/02 15:20:45;;;;;;;;;;;;;;;;;;6280142;28;19943;-89
2023/12/02 15:23:45;;;;;;;;;;;;;;;;;;6290610;28;19909;-87
2023/12/02 15:26:46;;;;;;;;;;;;;;;;;;6293979;28;19955;-91
2023/12/02 15:29:46;;;;;;;;;;;;;;;;;;6255266;28;19989;-91
2023/12/02 15:32:46;;;;;;;;;;;;;;;;;;6253905;28;19999;-89
2023/12/02 15:35:46;;;;;;;;;;;;;;;;;;6272066;28;19917;-89
2023/12/02 15:38:46;;;;;;;;;;;;;;;;;;6297768;28;19923;-91
2023/12/02 15:41:47;;;;;;;;;;;;;;;;;;6272234;28;19913;-89
2023/12/02 15:44:47;;;;;;;;;;;;;;;;;;6277149;28;20006;-91
2023/12/02 15:47:47;;;;;;;;;;;;;;;;;;6291202;28;19999;-92
2023/12/02 15:50:47;;;;;;;;;;;;;;;;;;6284686;28;19908;-84
2023/12/02 15:53:48;;;;;;;;;;;;;;;;;;6293052;28;19913;-89
2023/12/02 15:56:48;;;;;;;;;;;;;;;;;;6282707;28;19917;-88
2023/12/02 15:59:48;;;;;;;;;;;;;;;;;;6290387;28;19959;-89
2023/12/02 16:02:48;;;;;;;;;;;;;;;;;;6287592;28;19923;-85
2023/12/02 16:05:48;;;;;;;;;;;;;;;;;;6310316;28;20384;-92
2023/12/02 16:08:48;;;;;;;;;;;;;;;;;;6296991;28;20377;-95
2023/12/02 16:11:48;;;;;;;;;;;;;;;;;;6285729;28;20392;-88
2023/12/02 16:14:48;;;;;;;;;;;;;;;;;;6299419;28;20365;-87
2023/12/02 16:17:49;;;;;;;;;;;;;;;;;;6299820;28;19908;-87
2023/12/02 16:20:49;;;;;;;;;;;;;;;;;;6290856;28;19942;-91
2023/12/02 16:23:49;;;;;;;;;;;;;;;;;;6287493;28;19913;-86
2023/12/02 16:26:49;;;;;;;;;;;;;;;;;;6275116;28;19913;-86
2023/12/02 16:29:51;;;;;;;;;;;;;;;;;;6276375;28;19928;-84
2023/12/02 16:32:51;;;;;;;;;;;;;;;;;;6295426;28;19938;-85
2023/12/02 16:35:51;;;;;;;;;;;;;;;;;;6277710;28;20023;-85
2023/12/02 16:38:52;;;;;;;;;;;;;;;;;;6270665;28;19917;-86
2023/12/02 16:41:52;;;;;;;;;;;;;;;;;;6255571;28;19917;-87
2023/12/02 16:44:52;;;;;;;;;;;;;;;;;;6295813;28;19909;-87
2023/12/02 16:47:55;;;;;;;;;;;;;;;;;;6275218;28;19921;-88
2023/12/02 16:50:55;;;;;;;;;;;;;;;;;;6298591;28;19959;-88
2023/12/02 16:53:55;;;;;;;;;;;;;;;;;;6267728;28;19917;-88
2023/12/02 16:56:55;;;;;;;;;;;;;;;;;;6288559;28;20408;-89
2023/12/02 16:59:57;;;;;;;;;;;;;;;;;;6278519;28;20389;-88
2023/12/02 17:02:57;;;;;;;;;;;;;;;;;;6263246;28;19909;-90
2023/12/02 17:05:57;;;;;;;;;;;;;;;;;;6274785;28;19916;-87
2023/12/02 17:08:57;;;;;;;;;;;;;;;;;;6277550;28;19909;-88
2023/12/02 17:11:57;;;;;;;;;;;;;;;;;;6286617;28;19964;-90
2023/12/02 17:14:58;;;;;;;;;;;;;;;;;;6294797;28;19916;-88
2023/12/02 17:17:58;;;;;;;;;;;;;;;;;;6279899;28;19934;-88
2023/12/02 17:20:58;;;;;;;;;;;;;;;;;;6278698;28;19912;-87
2023/12/02 17:23:58;;;;;;;;;;;;;;;;;;6263409;28;19954;-89
2023/12/02 17:26:58;;;;;;;;;;;;;;;;;;6276918;28;19936;-90
2023/12/02 17:29:58;;;;;;;;;;;;;;;;;;6290638;28;19974;-89
2023/12/02 17:32:58;;;;;;;;;;;;;;;;;;6278041;28;19915;-85
2023/12/02 17:35:59;;;;;;;;;;;;;;;;;;6274460;28;19913;-86
2023/12/02 17:38:59;;;;;;;;;;;;;;;;;;6278865;28;19923;-86
2023/12/02 17:41:59;;;;;;;;;;;;;;;;;;6290628;28;20359;-85
2023/12/02 17:44:59;;;;;;;;;;;;;;;;;;6262761;28;20000;-90
2023/12/02 17:47:59;;;;;;;;;;;;;;;;;;6297459;28;20348;-88
2023/12/02 17:51:00;;;;;;;;;;;;;;;;;;6258727;28;19955;-87
2023/12/02 17:54:00;;;;;;;;;;;;;;;;;;6261337;28;19952;-89
2023/12/02 17:57:00;;;;;;;;;;;;;;;;;;6281549;28;20454;-88
2023/12/02 18:00:00;;;;;;;;;;;;;;;;;;6295733;28;19919;-89
2023/12/02 18:03:00;;;;;;;;;;;;;;;;;;6285618;28;20034;-89
2023/12/02 18:06:00;;;;;;;;;;;;;;;;;;6295225;28;19936;-88
2023/12/02 18:09:01;;;;;;;;;;;;;;;;;;6287904;28;19963;-89
2023/12/02 18:12:01;;;;;;;;;;;;;;;;;;6260924;28;19917;-88
2023/12/02 18:15:01;;;;;;;;;;;;;;;;;;6260276;28;19928;-88
2023/12/02 18:18:02;;;;;;;;;;;;;;;;;;6277406;28;19916;-88
2023/12/02 18:21:03;;;;;;;;;;;;;;;;;;5925487;28;10000133;-89
2023/12/02 18:24:04;;;;;;;;;;;;;;;;;;6263321;28;19939;-90
2023/12/02 18:27:04;;;;;;;;;;;;;;;;;;6261379;28;19920;-90
2023/12/02 18:30:04;;;;;;;;;;;;;;;;;;5576812;28;10000733;-89
2023/12/02 18:33:05;;;;;;;;;;;;;;;;;;6295217;28;19972;-93
2023/12/02 18:36:05;;;;;;;;;;;;;;;;;;6296842;28;19924;-93
2023/12/02 18:39:06;;;;;;;;;;;;;;;;;;6268718;28;19980;-93
2023/12/02 18:42:06;;;;;;;;;;;;;;;;;;6287438;28;20305;-94
2023/12/02 18:45:07;;;;;;;;;;;;;;;;;;6289666;28;19968;-94
2023/12/02 18:48:07;;;;;;;;;;;;;;;;;;6291129;28;19955;-93
2023/12/02 18:51:07;;;;;;;;;;;;;;;;;;6279402;28;19923;-94
2023/12/02 18:54:07;;;;;;;;;;;;;;;;;;6262255;28;19912;-94
2023/12/02 18:57:07;;;;;;;;;;;;;;;;;;6294345;28;20369;-93
2023/12/02 19:00:09;;;;;;;;;;;;;;;;;;6288768;28;19916;-95
2023/12/02 19:03:09;;;;;;;;;;;;;;;;;;6293147;28;19912;-93
2023/12/02 19:06:15;;;;;;;;;;;;;;;;;;6295259;28;19916;-92
2023/12/02 19:09:15;;;;;;;;;;;;;;;;;;6275595;28;19917;-93
2023/12/02 19:12:15;;;;;;;;;;;;;;;;;;6262111;28;20006;-93
2023/12/02 19:15:16;;;;;;;;;;;;;;;;;;6277467;28;20661;-93
2023/12/02 19:18:16;;;;;;;;;;;;;;;;;;6266414;28;20367;-93
2023/12/02 19:21:16;;;;;;;;;;;;;;;;;;6263646;28;19920;-93
2023/12/02 19:24:16;;;;;;;;;;;;;;;;;;6277566;28;20024;-93
2023/12/02 19:27:17;;;;;;;;;;;;;;;;;;6279525;28;19955;-94
2023/12/02 19:30:18;;;;;;;;;;;;;;;;;;6276321;28;19974;-96
2023/12/02 19:33:38;;;;;;;;;;;;;;;;;;6271265;28;20326;-94
2023/12/02 19:36:38;;;;;;;;;;;;;;;;;;6258569;28;19963;-95
2023/12/02 19:39:42;;;;;;;;;;;;;;;;;;6256561;28;19975;-96
2023/12/02 19:43:02;;;;;;;;;;;;;;;;;;6257720;28;20846;-96
2023/12/02 19:46:03;;;;;;;;;;;;;;;;;;6246036;28;20020;-96
2023/12/02 19:49:03;;;;;;;;;;;;;;;;;;6250923;28;19921;-95
2023/12/02 19:52:21;;;;;;;;;;;;;;;;;;5912229;28;9999929;-96
2023/12/02 19:55:21;;;;;;;;;;;;;;;;;;6279332;28;20290;-96
2023/12/02 19:58:22;;;;;;;;;;;;;;;;;;6265492;28;19928;-96
2023/12/02 20:01:31;;;;;;;;;;;;;;;;;;6254088;28;20003;-96
2023/12/02 20:04:32;;;;;;;;;;;;;;;;;;6258783;28;19920;-96
2023/12/02 20:07:34;;;;;;;;;;;;;;;;;;6256521;28;19920;-96
2023/12/02 20:10:34;;;;;;;;;;;;;;;;;;6241702;28;19913;-96
2023/12/02 20:13:56;;;;;;;;;;;;;;;;;;6257564;28;19917;-96
2023/12/02 20:17:17;;;;;;;;;;;;;;;;;;6264407;28;20345;-96
2023/12/02 20:20:35;;;;;;;;;;;;;;;;;;6258419;28;19923;-96
2023/12/02 20:23:55;;;;;;;;;;;;;;;;;;6269172;28;19959;-96
2023/12/02 20:26:59;;;;;;;;;;;;;;;;;;6258101;28;19920;-95
2023/12/02 20:29:59;;;;;;;;;;;;;;;;;;6249923;28;19956;-96
2023/12/02 20:32:59;;;;;;;;;;;;;;;;;;6272373;28;19921;-95